Arden, Nevada
Current Conditions -  °F | °C
As of 9:56 AM on Thursday 23 Oct 2014 (Local Time) from KLAS Reporting Station
Broken Clouds Broken Clouds  
Wind Chill: 73°   Ceiling: 25000
Heat Index: 73°   Visibility: 10mi
Dew Point: 32°   Wind: 3mph
Humidity: 22%   Direction: 210°SSW
Pressure: 30.08"   Gusts: NA
Location:  36.079°N, 115.211°W
Report Text: KLAS 231656Z 21003KT 10SM BKN250 23/00 A3008 RMK AO2 SLP167 T02280000
Loading
Personal Weather Stations






























Interactive Weather Map
Tropical Storm Tracking
New forecast layout! Learn more

10-Day Weather Forecast

Advertisements
Track Severe Weather on mobile